Anamur, Turkey
Current Conditions -  °F | °C
As of 2:20 AM on Friday 19 Dec 2014 (Local Time) from LCEN Reporting Station
Haze Haze  
Wind Chill: 54°   Ceiling: Unl
Heat Index: 54°   Visibility: 3mi
Dew Point: 50°   Wind: 6mph
Humidity: 88%   Direction: 310°NW
Pressure: 30"   Gusts: NA
Location:  36.08°N, 32.84°E
Report Text: LCEN 182320Z 31005KT 5000 BR FEW025 12/10 Q1016 NOSIG
Loading
Personal Weather Stations






























Interactive Weather Map New forecast layout! Learn more

10-Day Weather Forecast

Advertisements
Track Severe Weather on mobile